createdAt,value
2019-05-11T00:00:24.768Z,1.93
2019-05-11T00:02:51.763Z,3.50
2019-05-11T00:05:18.500Z,2.40
2019-05-11T00:07:45.267Z,3.50
2019-05-11T00:10:12.421Z,3.10
2019-05-11T00:12:39.130Z,2.07
2019-05-11T00:15:06.178Z,4.20
2019-05-11T00:17:32.891Z,3.00
2019-05-11T00:19:59.707Z,3.50
2019-05-11T00:22:26.416Z,1.70
2019-05-11T00:24:53.172Z,3.97
2019-05-11T00:27:19.985Z,4.20
2019-05-11T00:29:46.663Z,7.47
2019-05-11T00:32:13.378Z,3.83
2019-05-11T00:34:40.088Z,3.13
2019-05-11T00:37:06.782Z,4.87
2019-05-11T00:39:33.731Z,2.47
2019-05-11T00:42:00.445Z,4.33
2019-05-11T00:44:27.162Z,6.10
2019-05-11T00:46:53.882Z,1.87
2019-05-11T00:49:20.587Z,3.63
2019-05-11T00:51:47.303Z,1.97
2019-05-11T00:54:14.605Z,3.87
2019-05-11T00:56:41.294Z,3.57
2019-05-11T00:59:20.972Z,1.40
2019-05-11T01:01:36.600Z,3.80
2019-05-11T01:04:03.350Z,2.63
2019-05-11T01:06:30.139Z,1.60
2019-05-11T01:08:56.819Z,5.40
2019-05-11T01:11:23.886Z,1.60
2019-05-11T01:13:50.625Z,3.27
2019-05-11T01:16:17.319Z,1.73
2019-05-11T01:18:44.128Z,1.13
2019-05-11T01:21:10.839Z,4.13
2019-05-11T01:23:37.539Z,4.20
2019-05-11T01:26:04.591Z,1.37
2019-05-11T01:28:31.540Z,2.77
2019-05-11T01:30:58.267Z,2.00
2019-05-11T01:33:25.227Z,1.90
2019-05-11T01:35:51.924Z,1.47
2019-05-11T01:38:18.636Z,1.57
2019-05-11T01:40:58.294Z,2.87
2019-05-11T01:43:14.287Z,1.13
2019-05-11T01:45:40.969Z,1.47
2019-05-11T01:48:07.918Z,3.60
2019-05-11T01:50:35.175Z,2.43
2019-05-11T01:53:01.870Z,2.80
2019-05-11T01:55:28.572Z,2.07
2019-05-11T01:57:55.300Z,1.83
2019-05-11T02:00:22.329Z,2.80
2019-05-11T02:02:49.005Z,1.53
2019-05-11T02:05:33.756Z,2.67
2019-05-11T02:08:01.192Z,1.80
2019-05-11T02:10:28.888Z,3.77
2019-05-11T02:12:55.604Z,1.93
2019-05-11T02:15:22.312Z,1.93
2019-05-11T02:17:49.037Z,2.77
2019-05-11T02:20:16.258Z,4.40
2019-05-11T02:22:43.058Z,10.20
2019-05-11T02:25:10.543Z,1.63
2019-05-11T02:27:37.668Z,4.30
2019-05-11T02:30:05.466Z,2.57
2019-05-11T02:32:32.243Z,5.90
2019-05-11T02:34:59.216Z,3.40
2019-05-11T02:37:26.192Z,14.93
2019-05-11T02:39:53.144Z,2.67
2019-05-11T02:42:20.414Z,4.40
2019-05-11T02:44:47.435Z,2.07
2019-05-11T02:47:14.392Z,2.33
2019-05-11T02:49:41.060Z,2.53
2019-05-11T02:52:09.101Z,2.90
2019-05-11T02:54:36.784Z,1.83
2019-05-11T02:57:03.602Z,3.03
2019-05-11T02:59:30.551Z,3.67
2019-05-11T03:01:57.804Z,4.83
2019-05-11T03:04:24.819Z,1.57
2019-05-11T03:06:51.803Z,2.47
2019-05-11T03:09:18.499Z,2.13
2019-05-11T03:11:55.793Z,2.83
2019-05-11T03:14:13.827Z,2.70
2019-05-11T03:16:40.799Z,3.63
2019-05-11T03:19:07.795Z,2.87
2019-05-11T03:21:34.482Z,2.60
2019-05-11T03:24:01.548Z,2.07
2019-05-11T03:26:28.240Z,4.73
2019-05-11T03:28:55.231Z,4.03
2019-05-11T03:31:22.215Z,2.37
2019-05-11T03:33:48.893Z,2.00
2019-05-11T03:36:15.582Z,2.70
2019-05-11T03:38:42.611Z,2.53
2019-05-11T03:41:09.331Z,1.73
2019-05-11T03:43:36.399Z,3.97
2019-05-11T03:46:03.061Z,3.03
2019-05-11T03:48:29.772Z,3.20
2019-05-11T03:50:56.451Z,6.10
2019-05-11T03:53:23.399Z,3.20
2019-05-11T03:55:50.089Z,4.97
2019-05-11T03:58:16.793Z,4.40
2019-05-11T04:00:43.536Z,4.00
2019-05-11T04:03:10.259Z,3.63
2019-05-11T04:05:36.939Z,5.60
2019-05-11T04:08:03.661Z,4.10
2019-05-11T04:10:30.972Z,6.97
2019-05-11T04:12:57.923Z,8.50
2019-05-11T04:15:24.974Z,6.80
2019-05-11T04:17:52.111Z,6.93
2019-05-11T04:20:19.354Z,5.47
2019-05-11T04:22:46.067Z,7.87
2019-05-11T04:25:12.950Z,6.17
2019-05-11T04:27:39.922Z,7.23
2019-05-11T04:30:07.136Z,7.93
2019-05-11T04:32:34.075Z,6.50
2019-05-11T04:35:01.140Z,8.40
2019-05-11T04:37:27.820Z,7.07
2019-05-11T04:39:54.501Z,8.60
2019-05-11T04:42:21.766Z,9.10
2019-05-11T04:44:52.243Z,5.43
2019-05-11T04:47:17.631Z,7.87
2019-05-11T04:49:44.651Z,7.63
2019-05-11T04:52:11.708Z,7.73
2019-05-11T04:54:38.437Z,7.03
2019-05-11T04:57:05.245Z,7.37
2019-05-11T04:59:32.028Z,6.17
2019-05-11T05:01:58.736Z,7.20
2019-05-11T05:04:25.655Z,12.57
2019-05-11T05:06:59.704Z,15.17
2019-05-11T05:09:21.310Z,7.63
2019-05-11T05:11:48.196Z,6.97
2019-05-11T05:14:15.160Z,10.23
2019-05-11T05:16:41.847Z,7.17
2019-05-11T05:19:09.005Z,8.80
2019-05-11T05:21:35.675Z,7.67
2019-05-11T05:24:02.383Z,11.40
2019-05-11T05:26:29.357Z,13.37
2019-05-11T05:28:56.405Z,13.10
2019-05-11T05:31:23.133Z,6.17
2019-05-11T05:33:50.100Z,9.50
2019-05-11T05:36:16.762Z,10.13
2019-05-11T05:38:43.486Z,6.93
2019-05-11T05:41:10.175Z,5.43
2019-05-11T05:43:36.872Z,4.87
2019-05-11T05:46:03.575Z,10.07
2019-05-11T05:48:30.381Z,4.43
2019-05-11T05:50:57.356Z,7.23
2019-05-11T05:53:24.073Z,6.27
2019-05-11T05:55:51.044Z,6.67
2019-05-11T05:58:17.763Z,3.73
2019-05-11T06:00:45.446Z,4.13
2019-05-11T06:03:12.468Z,4.30
2019-05-11T06:05:39.214Z,4.20
2019-05-11T06:08:05.960Z,3.20
2019-05-11T06:10:32.932Z,4.80
2019-05-11T06:12:59.961Z,3.73
2019-05-11T06:15:26.787Z,6.73
2019-05-11T06:17:53.500Z,4.13
2019-05-11T06:20:20.303Z,3.13
2019-05-11T06:22:47.018Z,3.20
2019-05-11T06:25:13.924Z,5.13
2019-05-11T06:27:40.931Z,3.67
2019-05-11T06:30:08.500Z,3.83
2019-05-11T06:32:35.320Z,3.93
2019-05-11T06:35:02.885Z,3.93
2019-05-11T06:37:30.016Z,3.30
2019-05-11T06:39:56.719Z,3.60
2019-05-11T06:42:23.727Z,4.53
2019-05-11T06:44:50.488Z,3.40
2019-05-11T06:47:17.196Z,2.97
2019-05-11T06:49:43.893Z,3.73
2019-05-11T06:52:10.607Z,2.73
2019-05-11T06:54:37.290Z,4.67
2019-05-11T06:57:04.687Z,2.23
2019-05-11T06:59:31.404Z,2.33
2019-05-11T07:01:58.371Z,2.23
2019-05-11T07:04:25.092Z,1.90
2019-05-11T07:06:51.785Z,1.83
2019-05-11T07:09:18.472Z,2.40
2019-05-11T07:11:45.182Z,1.87
2019-05-11T07:14:20.391Z,1.43
2019-05-11T07:16:40.919Z,1.80
2019-05-11T07:19:07.923Z,2.57
2019-05-11T07:21:34.603Z,1.30
2019-05-11T07:24:01.320Z,1.40
2019-05-11T07:26:28.279Z,1.60
2019-05-11T07:28:55.283Z,0.93
2019-05-11T07:31:22.111Z,2.47
2019-05-11T07:33:49.085Z,1.77
2019-05-11T07:36:17.723Z,1.87
2019-05-11T07:38:44.824Z,1.10
2019-05-11T07:41:12.066Z,4.63
2019-05-11T07:43:39.020Z,1.40
2019-05-11T07:46:07.716Z,1.47
2019-05-11T07:48:34.307Z,1.90
2019-05-11T07:51:00.996Z,1.40
2019-05-11T07:53:28.098Z,1.00
2019-05-11T07:55:57.556Z,1.63
2019-05-11T07:58:24.214Z,1.10
2019-05-11T08:00:51.225Z,1.03
2019-05-11T08:03:18.160Z,1.53
2019-05-11T08:05:47.681Z,1.03
2019-05-11T08:08:13.915Z,1.37
2019-05-11T08:10:40.618Z,1.07
2019-05-11T08:13:09.143Z,1.20
2019-05-11T08:15:38.256Z,1.60
2019-05-11T08:18:05.680Z,1.23
2019-05-11T08:20:32.482Z,1.40
2019-05-11T08:22:59.187Z,1.50
2019-05-11T08:25:28.498Z,1.23
2019-05-11T08:27:54.820Z,2.87
2019-05-11T08:30:22.319Z,1.77
2019-05-11T08:32:49.634Z,5.27
2019-05-11T08:35:17.933Z,1.53
2019-05-11T08:37:44.849Z,1.67
2019-05-11T08:40:13.842Z,2.37
2019-05-11T08:42:41.075Z,2.53
2019-05-11T08:45:19.464Z,2.80
2019-05-11T08:47:37.719Z,1.20
2019-05-11T08:50:07.874Z,0.87
2019-05-11T08:52:34.228Z,1.03
2019-05-11T08:55:01.150Z,1.40
2019-05-11T08:57:28.675Z,0.80
2019-05-11T08:59:57.675Z,1.97
2019-05-11T09:02:24.422Z,2.10
2019-05-11T09:04:51.249Z,1.43
2019-05-11T09:07:18.546Z,0.60
2019-05-11T09:09:45.680Z,1.00
2019-05-11T09:12:12.393Z,2.57
2019-05-11T09:14:39.243Z,0.80
2019-05-11T09:17:07.815Z,0.80
2019-05-11T09:19:34.696Z,0.70
2019-05-11T09:22:03.244Z,0.90
2019-05-11T09:24:30.423Z,0.80
2019-05-11T09:26:58.598Z,0.60
2019-05-11T09:29:27.968Z,0.80
2019-05-11T09:31:54.516Z,2.20
2019-05-11T09:34:21.223Z,0.80
2019-05-11T09:36:48.159Z,1.23
2019-05-11T09:39:17.580Z,0.60
2019-05-11T09:41:43.795Z,0.50
2019-05-11T09:44:10.857Z,2.07
2019-05-11T09:46:38.443Z,0.93
2019-05-11T09:49:07.833Z,3.63
2019-05-11T09:51:34.512Z,0.80
2019-05-11T09:54:01.560Z,1.00
2019-05-11T09:56:28.851Z,0.70
2019-05-11T09:58:58.025Z,0.80
2019-05-11T10:01:24.408Z,0.67
2019-05-11T10:03:51.125Z,0.83
2019-05-11T10:06:19.076Z,0.80
2019-05-11T10:08:48.446Z,0.73
2019-05-11T10:11:14.948Z,0.60
2019-05-11T10:13:42.039Z,0.73
2019-05-11T10:16:10.684Z,1.07
2019-05-11T10:18:38.539Z,1.53
2019-05-11T10:21:08.116Z,0.70
2019-05-11T10:23:34.967Z,0.83
2019-05-11T10:26:01.775Z,0.63
2019-05-11T10:28:28.591Z,1.00
2019-05-11T10:30:57.320Z,0.50
2019-05-11T10:33:23.968Z,0.60
2019-05-11T10:35:50.638Z,1.60
2019-05-11T10:38:17.965Z,1.13
2019-05-11T10:40:47.858Z,0.50
2019-05-11T10:43:14.302Z,0.87
2019-05-11T10:45:40.995Z,0.63
2019-05-11T10:48:08.850Z,0.80
2019-05-11T10:50:37.907Z,0.77
2019-05-11T10:53:04.517Z,0.60
2019-05-11T10:55:31.200Z,0.50
2019-05-11T10:57:58.251Z,0.40
2019-05-11T11:00:28.104Z,1.30
2019-05-11T11:02:54.682Z,0.57
2019-05-11T11:05:21.668Z,0.70
2019-05-11T11:07:48.731Z,0.60
2019-05-11T11:10:18.131Z,0.50
2019-05-11T11:12:45.337Z,2.53
2019-05-11T11:16:13.081Z,1.03
2019-05-11T11:18:40.047Z,0.57
2019-05-11T11:21:08.675Z,0.50
2019-05-11T11:23:35.788Z,0.73
2019-05-11T11:26:02.867Z,0.50
2019-05-11T11:28:29.983Z,0.50
2019-05-11T11:30:58.424Z,3.07
2019-05-11T11:33:27.548Z,0.63
2019-05-11T11:35:54.276Z,0.60
2019-05-11T11:38:21.037Z,0.70
2019-05-11T11:40:48.337Z,0.63
2019-05-11T11:43:17.893Z,0.70
2019-05-11T11:45:44.570Z,1.70
2019-05-11T11:48:11.279Z,0.70
2019-05-11T11:50:38.004Z,0.87
2019-05-11T11:53:05.079Z,1.83
2019-05-11T11:55:32.625Z,1.10
2019-05-11T11:57:59.341Z,1.70
2019-05-11T12:00:28.126Z,0.87
2019-05-11T12:02:54.951Z,0.60
2019-05-11T12:05:21.823Z,0.73
2019-05-11T12:07:49.222Z,3.20
2019-05-11T12:10:18.346Z,1.60
2019-05-11T12:12:47.513Z,0.70
2019-05-11T12:15:15.004Z,0.80
2019-05-11T12:17:42.046Z,1.23
2019-05-11T12:20:09.192Z,0.70
2019-05-11T12:22:38.428Z,0.93
2019-05-11T12:25:05.364Z,0.80
2019-05-11T12:27:32.332Z,0.80
2019-05-11T12:29:59.340Z,0.80
2019-05-11T12:32:33.712Z,1.60
2019-05-11T12:35:00.428Z,1.40
2019-05-11T12:37:28.259Z,0.80
2019-05-11T12:39:55.464Z,1.57
2019-05-11T12:42:22.379Z,0.97
2019-05-11T12:44:49.186Z,1.00
2019-05-11T12:47:22.279Z,1.30
2019-05-11T12:49:44.808Z,3.90
2019-05-11T12:52:12.055Z,2.07
2019-05-11T12:54:39.311Z,1.53
2019-05-11T12:57:07.895Z,1.40
2019-05-11T12:59:35.084Z,1.10
2019-05-11T13:02:02.222Z,2.40
2019-05-11T13:04:28.918Z,1.13
2019-05-11T13:06:57.950Z,1.23
2019-05-11T13:09:24.504Z,4.53
2019-05-11T13:11:51.552Z,1.77
2019-05-11T13:14:18.703Z,1.47
2019-05-11T13:16:45.479Z,1.30
2019-05-11T13:19:12.186Z,1.17
2019-05-11T13:21:39.144Z,0.97
2019-05-11T13:24:08.170Z,1.10
2019-05-11T13:26:35.111Z,1.37
2019-05-11T13:29:02.352Z,1.50
2019-05-11T13:31:29.387Z,0.93
2019-05-11T13:33:58.362Z,1.10
2019-05-11T13:36:24.670Z,1.80
2019-05-11T13:38:51.383Z,1.33
2019-05-11T13:41:18.947Z,2.50
2019-05-11T13:43:48.332Z,2.03
2019-05-11T13:46:14.767Z,4.60
2019-05-11T13:48:41.455Z,1.97
2019-05-11T13:51:08.763Z,1.63
2019-05-11T13:53:37.646Z,0.70
2019-05-11T13:56:04.713Z,1.63
2019-05-11T13:58:32.146Z,0.93
2019-05-11T14:00:59.480Z,1.00
2019-05-11T14:03:27.649Z,0.90
2019-05-11T14:05:54.839Z,1.10
2019-05-11T14:08:21.639Z,1.93
2019-05-11T14:10:48.830Z,5.17
2019-05-11T14:13:18.178Z,1.90
2019-05-11T14:15:45.052Z,1.33
2019-05-11T14:18:12.226Z,2.10
2019-05-11T14:20:39.196Z,1.50
2019-05-11T14:23:07.736Z,2.17
2019-05-11T14:25:34.727Z,1.77
2019-05-11T14:28:01.452Z,1.30
2019-05-11T14:30:28.249Z,1.30
2019-05-11T14:32:55.051Z,1.40
2019-05-11T14:35:21.857Z,1.43
2019-05-11T14:37:48.964Z,1.30
2019-05-11T14:40:17.845Z,2.20
2019-05-11T14:42:45.247Z,1.20
2019-05-11T14:47:53.742Z,1.50
2019-05-11T14:50:20.425Z,1.50
2019-05-11T14:52:49.023Z,2.30
2019-05-11T14:55:18.220Z,2.90
2019-05-11T14:57:45.100Z,2.33
2019-05-11T15:00:12.700Z,1.40
2019-05-11T15:02:45.241Z,1.07
2019-05-11T15:05:12.780Z,0.93
2019-05-11T15:07:39.904Z,1.90
2019-05-11T15:10:08.761Z,1.67
2019-05-11T15:12:37.847Z,1.20
2019-05-11T15:15:04.799Z,1.63
2019-05-11T15:17:31.780Z,2.87
2019-05-11T15:19:58.792Z,1.50
2019-05-11T15:22:25.816Z,1.60
2019-05-11T15:24:53.089Z,1.63
2019-05-11T15:27:20.018Z,3.07
2019-05-11T15:29:47.870Z,2.83
2019-05-11T15:32:15.227Z,2.27
2019-05-11T15:34:41.928Z,1.93
2019-05-11T15:37:08.871Z,3.10
2019-05-11T15:39:37.740Z,1.97
2019-05-11T15:42:09.811Z,2.40
2019-05-11T15:44:33.987Z,1.97
2019-05-11T15:47:01.040Z,2.37
2019-05-11T15:49:28.359Z,2.20
2019-05-11T15:51:57.734Z,4.17
2019-05-11T15:54:24.538Z,2.87
2019-05-11T15:56:51.891Z,1.93
2019-05-11T15:59:18.645Z,1.33
2019-05-11T16:01:45.343Z,1.70
2019-05-11T16:04:12.391Z,2.00
2019-05-11T16:06:39.368Z,2.30
2019-05-11T16:09:08.367Z,2.63
2019-05-11T16:11:35.720Z,1.73
2019-05-11T16:14:02.532Z,2.40
2019-05-11T16:16:29.220Z,3.53
2019-05-11T16:19:08.643Z,4.17
2019-05-11T16:21:24.615Z,2.87
2019-05-11T16:23:51.547Z,2.13
2019-05-11T16:26:18.844Z,4.27
2019-05-11T16:28:47.594Z,2.07
2019-05-11T16:31:14.663Z,3.13
2019-05-11T16:33:42.027Z,2.63
2019-05-11T16:36:09.206Z,3.20
2019-05-11T16:38:37.987Z,6.77
2019-05-11T16:41:04.959Z,4.53
2019-05-11T16:43:32.276Z,4.37
2019-05-11T16:45:59.237Z,2.93
2019-05-11T16:48:27.674Z,3.80
2019-05-11T16:50:54.846Z,5.57
2019-05-11T16:53:22.083Z,5.47
2019-05-11T16:55:48.887Z,6.57
2019-05-11T16:58:19.455Z,6.37
2019-05-11T17:00:44.881Z,5.73
2019-05-11T17:03:11.716Z,8.90
2019-05-11T17:05:38.465Z,8.73
2019-05-11T17:08:08.028Z,8.50
2019-05-11T17:10:34.915Z,10.47
2019-05-11T17:13:02.067Z,10.63
2019-05-11T17:15:29.007Z,10.60
2019-05-11T17:17:56.063Z,12.60
2019-05-11T17:20:22.876Z,14.30
2019-05-11T17:22:53.574Z,14.13
2019-05-11T17:25:19.732Z,11.60
2019-05-11T17:27:48.714Z,13.37
2019-05-11T17:30:18.871Z,12.70
2019-05-11T17:32:45.459Z,12.20
2019-05-11T17:35:12.468Z,9.87
2019-05-11T17:37:39.174Z,11.57
2019-05-11T17:40:09.047Z,8.20
2019-05-11T17:42:37.494Z,8.03
2019-05-11T17:45:04.906Z,7.40
2019-05-11T17:47:31.571Z,9.93
2019-05-11T17:50:03.451Z,5.60
2019-05-11T17:52:28.213Z,4.30
2019-05-11T17:54:55.247Z,5.00
2019-05-11T17:57:22.155Z,3.77
2019-05-11T17:59:48.884Z,8.37
2019-05-11T18:02:17.554Z,5.37
2019-05-11T18:04:44.356Z,3.97
2019-05-11T18:07:24.322Z,8.90
2019-05-11T18:09:39.972Z,3.90
2019-05-11T18:12:06.659Z,5.50
2019-05-11T18:14:35.994Z,4.77
2019-05-11T18:17:01.984Z,4.73
2019-05-11T18:19:29.541Z,3.63
2019-05-11T18:21:57.750Z,5.60
2019-05-11T18:24:24.603Z,5.00
2019-05-11T18:26:51.321Z,4.40
2019-05-11T18:29:18.398Z,4.70
2019-05-11T18:31:45.530Z,4.10
2019-05-11T18:34:12.576Z,3.47
2019-05-11T18:36:39.280Z,3.77
2019-05-11T18:39:07.114Z,7.43
2019-05-11T18:41:33.807Z,4.50
2019-05-11T18:44:01.413Z,4.00
2019-05-11T18:46:28.552Z,4.10
2019-05-11T18:48:55.484Z,6.13
2019-05-11T18:51:22.440Z,2.80
2019-05-11T18:53:49.444Z,3.43
2019-05-11T18:56:18.169Z,5.87
2019-05-11T18:58:44.998Z,6.10
2019-05-11T19:01:11.820Z,3.63
2019-05-11T19:03:38.803Z,5.27
2019-05-11T19:06:08.300Z,3.40
2019-05-11T19:08:35.362Z,5.70
2019-05-11T19:11:02.049Z,3.10
2019-05-11T19:13:29.040Z,4.83
2019-05-11T19:15:58.192Z,4.00
2019-05-11T19:18:24.918Z,3.77
2019-05-11T19:20:51.607Z,4.30
2019-05-11T19:23:19.209Z,6.00
2019-05-11T19:25:48.027Z,6.83
2019-05-11T19:28:15.475Z,10.03
2019-05-11T19:30:42.160Z,4.43
2019-05-11T19:33:11.252Z,4.63
2019-05-11T19:35:38.001Z,5.23
2019-05-11T19:38:04.899Z,4.60
2019-05-11T19:40:31.592Z,9.60
2019-05-11T19:42:59.293Z,8.33
2019-05-11T19:45:29.058Z,5.90
2019-05-11T19:47:54.876Z,7.00
2019-05-11T19:50:21.879Z,6.27
2019-05-11T19:52:48.692Z,5.77
2019-05-11T19:55:18.002Z,5.37
2019-05-11T19:57:44.407Z,5.57
2019-05-11T20:00:11.496Z,8.97
2019-05-11T20:02:39.067Z,8.70
2019-05-11T20:05:06.121Z,9.60
2019-05-11T20:07:32.839Z,6.90
2019-05-11T20:09:59.837Z,10.63
2019-05-11T20:12:28.363Z,8.47
2019-05-11T20:15:08.565Z,7.53
2019-05-11T20:17:35.341Z,6.77
2019-05-11T20:20:02.576Z,9.57
2019-05-11T20:22:29.564Z,7.87
2019-05-11T20:24:58.050Z,11.67
2019-05-11T20:27:24.909Z,10.00
2019-05-11T20:29:51.624Z,12.43
2019-05-11T20:32:18.851Z,8.77
2019-05-11T20:34:45.609Z,7.73
2019-05-11T20:37:12.312Z,10.27
2019-05-11T20:39:38.995Z,8.10
2019-05-11T20:42:05.717Z,15.77
2019-05-11T20:44:32.408Z,12.20
2019-05-11T20:46:59.373Z,7.53
2019-05-11T20:49:28.296Z,10.17
2019-05-11T20:52:14.951Z,14.73
2019-05-11T20:54:42.214Z,14.27
2019-05-11T20:57:09.055Z,13.03
2019-05-11T20:59:38.072Z,11.80
2019-05-11T21:02:04.549Z,11.87
2019-05-11T21:04:31.770Z,10.50
2019-05-11T21:06:58.455Z,12.07
2019-05-11T21:09:25.721Z,20.60
2019-05-11T21:11:52.462Z,13.53
2019-05-11T21:14:19.422Z,16.30
2019-05-11T21:16:47.853Z,13.17
2019-05-11T21:19:15.060Z,10.97
2019-05-11T21:21:49.801Z,11.43
2019-05-11T21:24:10.631Z,14.97
2019-05-11T21:26:38.543Z,12.30
2019-05-11T21:29:05.565Z,14.90
2019-05-11T21:31:32.656Z,13.90
2019-05-11T21:33:59.613Z,12.40
2019-05-11T21:36:28.407Z,10.67
2019-05-11T21:38:55.220Z,13.83
2019-05-11T21:41:22.192Z,11.33
2019-05-11T21:43:49.018Z,13.03
2019-05-11T21:46:18.119Z,12.87
2019-05-11T21:48:44.984Z,11.47
2019-05-11T21:51:11.722Z,12.97
2019-05-11T21:53:38.511Z,13.43
2019-05-11T21:56:07.908Z,12.27
2019-05-11T21:58:34.208Z,14.37
2019-05-11T22:01:01.514Z,11.50
2019-05-11T22:03:28.255Z,11.67
2019-05-11T22:05:55.091Z,10.30
2019-05-11T22:08:22.210Z,10.43
2019-05-11T22:10:49.488Z,12.90
2019-05-11T22:13:17.757Z,13.00
2019-05-11T22:15:44.926Z,19.77
2019-05-11T22:18:12.306Z,10.63
2019-05-11T22:20:40.901Z,13.53
2019-05-11T22:23:08.431Z,13.50
2019-05-11T22:25:37.991Z,13.73
2019-05-11T22:28:04.636Z,16.80
2019-05-11T22:30:31.342Z,12.63
2019-05-11T22:32:58.601Z,15.40
2019-05-11T22:35:28.402Z,11.53
2019-05-11T22:37:54.759Z,11.77
2019-05-11T22:40:21.448Z,16.57
2019-05-11T22:42:48.232Z,11.67
2019-05-11T22:45:15.272Z,13.17
2019-05-11T22:47:42.195Z,12.73
2019-05-11T22:50:09.228Z,11.57
2019-05-11T22:52:37.320Z,11.40
2019-05-11T22:55:05.003Z,16.33
2019-05-11T22:57:31.674Z,14.93
2019-05-11T22:59:58.706Z,15.23
2019-05-11T23:02:28.712Z,14.93
2019-05-11T23:04:57.985Z,17.50
2019-05-11T23:07:25.562Z,14.20
2019-05-11T23:09:52.543Z,22.10
2019-05-11T23:12:19.487Z,20.20
2019-05-11T23:14:49.123Z,20.03
2019-05-11T23:17:15.836Z,15.83
2019-05-11T23:19:42.856Z,14.97
2019-05-11T23:22:09.912Z,17.37
2019-05-11T23:24:36.835Z,16.83
2019-05-11T23:27:03.533Z,19.73
2019-05-11T23:29:30.279Z,19.10
2019-05-11T23:31:58.404Z,16.23
2019-05-11T23:34:25.558Z,12.63
2019-05-11T23:36:52.690Z,13.37
2019-05-11T23:39:19.388Z,12.87
2019-05-11T23:41:48.295Z,18.43
2019-05-11T23:44:17.816Z,18.63
2019-05-11T23:46:44.693Z,11.43
2019-05-11T23:49:11.397Z,18.07
2019-05-11T23:51:38.828Z,11.90
2019-05-11T23:54:07.877Z,13.90
2019-05-11T23:56:34.312Z,15.47
2019-05-11T23:59:01.028Z,14.40
